createdAt,value
2023-12-31T00:05:41.435Z,11.60
2023-12-31T00:15:45.148Z,11.60
2023-12-31T00:25:47.231Z,11.60
2023-12-31T00:35:50.673Z,11.70
2023-12-31T00:45:52.681Z,11.70
2023-12-31T00:55:56.008Z,11.70
2023-12-31T01:06:05.401Z,9.40
2023-12-31T01:16:08.892Z,8.40
2023-12-31T01:26:10.905Z,8.20
2023-12-31T01:36:16.146Z,8.10
2023-12-31T01:46:27.520Z,8.00
2023-12-31T01:56:32.055Z,7.90
2023-12-31T02:06:36.930Z,7.90
2023-12-31T02:16:40.349Z,8.00
2023-12-31T02:26:43.756Z,8.00
2023-12-31T02:36:45.769Z,8.00
2023-12-31T02:46:50.617Z,7.90
2023-12-31T02:56:52.622Z,7.90
2023-12-31T03:06:55.998Z,7.90
2023-12-31T03:16:57.963Z,7.90
2023-12-31T03:27:02.762Z,7.90
2023-12-31T03:37:04.915Z,8.00
2023-12-31T03:47:08.354Z,8.20
2023-12-31T03:57:10.366Z,8.30
2023-12-31T04:07:13.860Z,8.30
2023-12-31T04:17:15.934Z,8.40
2023-12-31T04:27:21.361Z,8.40
2023-12-31T04:37:23.407Z,8.40
2023-12-31T04:47:26.942Z,8.30
2023-12-31T04:57:29.037Z,8.20
2023-12-31T05:07:32.519Z,8.20
2023-12-31T05:17:34.608Z,8.20
2023-12-31T05:27:39.864Z,8.10
2023-12-31T05:37:41.916Z,8.00
2023-12-31T05:47:47.309Z,7.80
2023-12-31T05:57:49.438Z,7.70
2023-12-31T06:07:53.412Z,7.60
2023-12-31T06:17:55.595Z,7.40
2023-12-31T06:27:59.030Z,7.30
2023-12-31T06:38:01.037Z,7.30
2023-12-31T06:48:05.001Z,7.10
2023-12-31T06:58:07.165Z,6.90
2023-12-31T07:08:10.592Z,6.80
2023-12-31T07:18:12.803Z,6.60
2023-12-31T07:28:16.637Z,6.50
2023-12-31T07:38:18.653Z,6.40
2023-12-31T07:48:22.096Z,6.30
2023-12-31T07:58:24.209Z,6.30
2023-12-31T08:08:27.608Z,6.30
2023-12-31T08:18:29.712Z,6.30
2023-12-31T08:28:33.378Z,6.30
2023-12-31T08:38:35.600Z,6.40
2023-12-31T08:48:39.045Z,6.50
2023-12-31T08:58:41.159Z,6.60
2023-12-31T09:08:44.680Z,6.70
2023-12-31T09:18:46.649Z,6.90
2023-12-31T09:28:50.039Z,7.10
2023-12-31T09:38:52.359Z,7.40
2023-12-31T09:48:56.282Z,8.70
2023-12-31T09:59:03.422Z,9.70
2023-12-31T10:09:10.795Z,9.10
2023-12-31T10:19:12.929Z,8.70
2023-12-31T10:29:17.872Z,8.60
2023-12-31T10:39:26.519Z,8.40
2023-12-31T10:49:31.589Z,8.30
2023-12-31T10:59:35.590Z,8.30
2023-12-31T11:09:39.844Z,8.30
2023-12-31T11:20:11.506Z,8.30
2023-12-31T11:30:15.362Z,8.40
2023-12-31T11:40:17.443Z,8.50
2023-12-31T11:50:24.591Z,8.40
2023-12-31T12:00:28.567Z,8.40
2023-12-31T12:10:32.515Z,8.70
2023-12-31T12:20:37.833Z,9.20
2023-12-31T12:30:42.085Z,9.90
2023-12-31T12:40:44.258Z,9.80
2023-12-31T12:50:47.900Z,9.40
2023-12-31T13:00:50.079Z,9.40
2023-12-31T13:10:54.380Z,9.80
2023-12-31T13:20:56.395Z,9.80
2023-12-31T13:31:03.114Z,10.00
2023-12-31T13:41:06.106Z,10.00
2023-12-31T13:51:11.571Z,9.90
2023-12-31T14:01:13.755Z,9.90
2023-12-31T14:11:20.751Z,10.00
2023-12-31T14:21:22.787Z,9.70
2023-12-31T14:31:29.094Z,9.70
2023-12-31T14:41:31.471Z,9.80
2023-12-31T14:51:36.717Z,9.80
2023-12-31T15:01:39.053Z,9.90
2023-12-31T15:11:42.934Z,9.80
2023-12-31T15:21:45.098Z,9.70
2023-12-31T15:31:48.740Z,9.70
2023-12-31T15:41:51.222Z,9.60
2023-12-31T15:51:54.838Z,9.30
2023-12-31T16:01:59.855Z,9.10
2023-12-31T16:12:05.067Z,8.90
2023-12-31T16:22:07.054Z,8.90
2023-12-31T16:32:13.120Z,8.70
2023-12-31T16:42:20.404Z,7.70
2023-12-31T16:52:24.391Z,7.60
2023-12-31T17:02:26.891Z,7.80
2023-12-31T17:12:30.343Z,8.00
2023-12-31T17:22:32.477Z,8.10
2023-12-31T17:32:35.981Z,8.10
2023-12-31T17:42:37.984Z,8.20
2023-12-31T17:52:41.402Z,8.30
2023-12-31T18:02:43.387Z,8.30
2023-12-31T18:12:46.867Z,8.40
2023-12-31T18:22:48.929Z,8.40
2023-12-31T18:32:52.750Z,8.40
2023-12-31T18:42:55.032Z,8.50
2023-12-31T18:52:58.422Z,8.40
2023-12-31T19:03:00.419Z,8.20
2023-12-31T19:13:03.975Z,8.20
2023-12-31T19:23:07.108Z,8.30
2023-12-31T19:33:11.890Z,8.20
2023-12-31T19:43:21.887Z,8.20
2023-12-31T19:53:34.636Z,8.10
2023-12-31T20:03:36.733Z,8.20
2023-12-31T20:13:40.175Z,8.20
2023-12-31T20:23:42.206Z,8.20
2023-12-31T20:33:45.945Z,8.20
2023-12-31T20:43:48.163Z,8.10
2023-12-31T20:53:51.733Z,8.00
2023-12-31T21:03:53.808Z,8.00
2023-12-31T21:13:57.267Z,8.00
2023-12-31T21:23:59.248Z,8.00
2023-12-31T21:34:04.941Z,8.00
2023-12-31T21:44:08.263Z,7.90
2023-12-31T21:54:11.639Z,7.90
2023-12-31T22:04:13.875Z,8.00
2023-12-31T22:14:17.298Z,8.10
2023-12-31T22:24:19.376Z,8.10
2023-12-31T22:34:22.974Z,8.10
2023-12-31T22:44:24.984Z,8.10
2023-12-31T22:54:28.375Z,8.00
2023-12-31T23:04:30.438Z,7.90
2023-12-31T23:14:33.881Z,7.90
2023-12-31T23:24:35.971Z,8.10
2023-12-31T23:34:39.653Z,8.10
2023-12-31T23:44:42.142Z,8.20
2023-12-31T23:54:45.534Z,8.30
